Terminal Aerodrome Forecast
Issued by NWS Goodland, KS

Home | Current Version | Previous Version | Text Only | Print | Product List | Glossary On
Versions: 1 2 3 4 5 6 7 8 9 10 11 12 13 14 15 16 17 18
000
FTUS43 KGLD 312320
TAFGLD
TAF
KGLD 312320Z 0100/0124 34011KT 3SM -SN BR OVC004
     FM010200 36010G16KT 4SM -SHSN BR OVC008
      TEMPO 0102/0106 1 1/2SM -SN OVC004
     FM010600 36015G25KT 3SM -SHSN BLSN OVC010
     FM011200 36020G30KT P6SM OVC025
     FM011800 36020G30KT P6SM BKN025 BKN050=

USA.gov is the U.S. government's official web portal to all federal, state and local government web resources and services.